Time,TemperatureF,DewpointF,PressureIn,WindDirection,WindDirectionDegrees,WindSpeedMPH,WindSpeedGustMPH,Humidity,HourlyPrecipIn,Conditions,Clouds,dailyrainin,SoftwareType,DateUTC
2013-08-08 00:14:00,70.9,53.0,29.92,WSW,238,1.0,4.0,53,0.00,,,0.00,weatherlink.com 1.10,2013-08-08 07:14:00,
2013-08-08 00:29:00,70.2,54.0,29.92,North,354,3.0,3.0,57,0.00,,,0.00,weatherlink.com 1.10,2013-08-08 07:29:00,
2013-08-08 00:44:00,69.5,54.0,29.91,ENE,75,1.0,5.0,59,0.00,,,0.00,weatherlink.com 1.10,2013-08-08 07:44:00,
2013-08-08 01:00:00,69.0,54.0,29.92,East,99,2.0,4.0,60,0.00,,,0.00,weatherlink.com 1.10,2013-08-08 08:00:00,
2013-08-08 01:14:00,68.6,54.0,29.92,ESE,112,1.0,4.0,61,0.00,,,0.00,weatherlink.com 1.10,2013-08-08 08:14:00,
2013-08-08 01:29:00,68.2,55.0,29.91,ENE,58,2.0,4.0,62,0.00,,,0.00,weatherlink.com 1.10,2013-08-08 08:29:00,
2013-08-08 01:44:00,67.8,55.0,29.91,NNE,12,0.0,2.0,63,0.00,,,0.00,weatherlink.com 1.10,2013-08-08 08:44:00,
2013-08-08 01:59:00,67.6,54.0,29.92,NE,43,0.0,1.0,63,0.00,,,0.00,weatherlink.com 1.10,2013-08-08 08:59:00,
2013-08-08 02:14:00,67.4,54.0,29.91,NNW,336,0.0,3.0,63,0.00,,,0.00,weatherlink.com 1.10,2013-08-08 09:14:00,
2013-08-08 02:29:00,67.4,55.0,29.92,East,79,0.0,2.0,64,0.00,,,0.00,weatherlink.com 1.10,2013-08-08 09:29:00,
2013-08-08 02:44:00,67.0,55.0,29.92,NW,319,0.0,3.0,65,0.00,,,0.00,weatherlink.com 1.10,2013-08-08 09:44:00,
2013-08-08 02:59:00,66.6,54.0,29.92,NW,316,1.0,3.0,65,0.00,,,0.00,weatherlink.com 1.10,2013-08-08 09:59:00,
2013-08-08 03:14:00,66.0,55.0,29.92,NNE,25,0.0,3.0,67,0.00,,,0.00,weatherlink.com 1.10,2013-08-08 10:14:00,
2013-08-08 03:29:00,65.1,55.0,29.92,ENE,69,0.0,2.0,70,0.00,,,0.00,weatherlink.com 1.10,2013-08-08 10:29:00,
2013-08-08 03:44:00,64.3,55.0,29.92,ENE,70,0.0,1.0,71,0.00,,,0.00,weatherlink.com 1.10,2013-08-08 10:44:00,
2013-08-08 04:00:00,63.7,55.0,29.92,ENE,72,0.0,1.0,73,0.00,,,0.00,weatherlink.com 1.10,2013-08-08 11:00:00,
2013-08-08 04:14:00,63.5,55.0,29.92,East,86,0.0,2.0,73,0.00,,,0.00,weatherlink.com 1.10,2013-08-08 11:14:00,
2013-08-08 04:29:00,63.1,55.0,29.92,NNW,347,0.0,2.0,74,0.00,,,0.00,weatherlink.com 1.10,2013-08-08 11:29:00,
2013-08-08 04:44:00,62.6,55.0,29.91,ENE,61,0.0,2.0,75,0.00,,,0.00,weatherlink.com 1.10,2013-08-08 11:44:00,
2013-08-08 04:59:00,62.3,55.0,29.92,NNE,13,1.0,2.0,76,0.00,,,0.00,weatherlink.com 1.10,2013-08-08 11:59:00,
2013-08-08 05:16:00,63.0,54.0,29.93,ENE,65,1.0,3.0,73,0.00,,,0.00,weatherlink.com 1.10,2013-08-08 12:16:00,
2013-08-08 05:29:00,63.2,54.0,29.92,NE,42,1.0,7.0,73,0.00,,,0.00,weatherlink.com 1.10,2013-08-08 12:29:00,
2013-08-08 05:44:00,63.4,54.0,29.92,NW,324,2.0,4.0,72,0.00,,,0.00,weatherlink.com 1.10,2013-08-08 12:44:00,
2013-08-08 05:59:00,63.6,54.0,29.92,WNW,300,1.0,5.0,71,0.00,,,0.00,weatherlink.com 1.10,2013-08-08 12:59:00,
2013-08-08 06:15:00,63.5,54.0,29.92,NE,56,2.0,6.0,71,0.00,,,0.00,weatherlink.com 1.10,2013-08-08 13:15:00,
2013-08-08 06:30:00,63.3,54.0,29.92,NNW,342,2.0,6.0,72,0.00,,,0.00,weatherlink.com 1.10,2013-08-08 13:30:00,
2013-08-08 06:46:00,63.5,54.0,29.92,NE,47,0.0,7.0,72,0.00,,,0.00,weatherlink.com 1.10,2013-08-08 13:46:00,
2013-08-08 07:00:00,64.1,54.0,29.93,NNW,345,2.0,7.0,70,0.00,,,0.00,weatherlink.com 1.10,2013-08-08 14:00:00,
2013-08-08 07:15:00,64.2,54.0,29.93,NNW,345,2.0,6.0,70,0.00,,,0.00,weatherlink.com 1.10,2013-08-08 14:15:00,
2013-08-08 07:30:00,64.2,55.0,29.93,East,94,3.0,9.0,71,0.00,,,0.00,weatherlink.com 1.10,2013-08-08 14:30:00,
2013-08-08 07:45:00,64.7,55.0,29.93,SW,221,2.0,6.0,70,0.00,,,0.00,weatherlink.com 1.10,2013-08-08 14:45:00,
2013-08-08 08:00:00,65.2,55.0,29.93,NNW,330,0.0,8.0,69,0.00,,,0.00,weatherlink.com 1.10,2013-08-08 15:00:00,
2013-08-08 08:15:00,65.4,55.0,29.93,NW,326,1.0,5.0,69,0.00,,,0.00,weatherlink.com 1.10,2013-08-08 15:15:00,
2013-08-08 08:30:00,65.2,56.0,29.93,NW,308,1.0,4.0,71,0.00,,,0.00,weatherlink.com 1.10,2013-08-08 15:30:00,
2013-08-08 08:45:00,65.8,55.0,29.93,West,281,1.0,5.0,68,0.00,,,0.00,weatherlink.com 1.10,2013-08-08 15:45:00,
2013-08-08 09:00:00,66.2,56.0,29.93,North,359,0.0,5.0,69,0.00,,,0.00,weatherlink.com 1.10,2013-08-08 16:00:00,
2013-08-08 09:15:00,66.9,56.0,29.93,NW,311,1.0,6.0,67,0.00,,,0.00,weatherlink.com 1.10,2013-08-08 16:15:00,
2013-08-08 09:30:00,67.1,56.0,29.93,East,96,0.0,4.0,68,0.00,,,0.00,weatherlink.com 1.10,2013-08-08 16:30:00,
2013-08-08 09:45:00,67.4,56.0,29.93,ESE,111,2.0,3.0,68,0.00,,,0.00,weatherlink.com 1.10,2013-08-08 16:45:00,
2013-08-08 10:00:00,67.1,56.0,29.93,NNW,345,1.0,4.0,68,0.00,,,0.00,weatherlink.com 1.10,2013-08-08 17:00:00,
2013-08-08 10:15:00,67.7,57.0,29.93,North,8,1.0,3.0,68,0.00,,,0.00,weatherlink.com 1.10,2013-08-08 17:15:00,
2013-08-08 10:30:00,68.8,57.0,29.93,WSW,246,4.0,5.0,66,0.00,,,0.00,weatherlink.com 1.10,2013-08-08 17:30:00,
2013-08-08 10:45:00,70.3,57.0,29.92,WNW,297,1.0,4.0,64,0.00,,,0.00,weatherlink.com 1.10,2013-08-08 17:45:00,
2013-08-08 11:00:00,71.6,57.0,29.92,NNW,345,1.0,3.0,61,0.00,,,0.00,weatherlink.com 1.10,2013-08-08 18:00:00,
2013-08-08 11:15:00,72.4,58.0,29.92,East,88,1.0,4.0,60,0.00,,,0.00,weatherlink.com 1.10,2013-08-08 18:15:00,
2013-08-08 11:30:00,73.0,58.0,29.92,NNW,335,0.0,4.0,59,0.00,,,0.00,weatherlink.com 1.10,2013-08-08 18:30:00,
2013-08-08 11:45:00,73.8,57.0,29.92,NE,41,1.0,5.0,57,0.00,,,0.00,weatherlink.com 1.10,2013-08-08 18:45:00,
2013-08-08 12:00:00,74.8,57.0,29.92,ENE,69,1.0,6.0,55,0.00,,,0.00,weatherlink.com 1.10,2013-08-08 19:00:00,
2013-08-08 12:15:00,74.7,58.0,29.91,NW,304,1.0,4.0,56,0.00,,,0.00,weatherlink.com 1.10,2013-08-08 19:15:00,
2013-08-08 12:30:00,75.5,58.0,29.91,East,98,1.0,4.0,55,0.00,,,0.00,weatherlink.com 1.10,2013-08-08 19:30:00,
2013-08-08 12:45:00,77.2,58.0,29.90,ENE,64,2.0,5.0,52,0.00,,,0.00,weatherlink.com 1.10,2013-08-08 19:45:00,
2013-08-08 13:00:00,78.0,58.0,29.90,East,80,3.0,5.0,51,0.00,,,0.00,weatherlink.com 1.10,2013-08-08 20:00:00,
2013-08-08 13:15:00,78.8,59.0,29.89,WSW,250,1.0,5.0,50,0.00,,,0.00,weatherlink.com 1.10,2013-08-08 20:15:00,
2013-08-08 13:30:00,80.0,59.0,29.89,SSW,193,1.0,4.0,48,0.00,,,0.00,weatherlink.com 1.10,2013-08-08 20:30:00,
2013-08-08 13:45:00,80.3,59.0,29.88,ENE,67,0.0,4.0,48,0.00,,,0.00,weatherlink.com 1.10,2013-08-08 20:45:00,
2013-08-08 14:01:00,81.6,59.0,29.88,WNW,294,1.0,4.0,47,0.00,,,0.00,weatherlink.com 1.10,2013-08-08 21:01:00,
2013-08-08 14:30:00,81.4,59.0,29.87,ENE,60,1.0,6.0,46,0.00,,,0.00,weatherlink.com 1.10,2013-08-08 21:30:00,
2013-08-08 14:46:00,81.6,59.0,29.86,SW,219,1.0,5.0,46,0.00,,,0.00,weatherlink.com 1.10,2013-08-08 21:46:00,
2013-08-08 15:02:00,81.9,59.0,29.86,SW,232,0.0,4.0,46,0.00,,,0.00,weatherlink.com 1.10,2013-08-08 22:02:00,
2013-08-08 15:16:00,81.6,59.0,29.86,West,264,1.0,4.0,47,0.00,,,0.00,weatherlink.com 1.10,2013-08-08 22:16:00,
2013-08-08 15:31:00,82.2,59.0,29.86,ESE,115,2.0,5.0,46,0.00,,,0.00,weatherlink.com 1.10,2013-08-08 22:31:00,
2013-08-08 15:46:00,79.9,60.0,29.86,ENE,65,1.0,4.0,50,0.00,,,0.00,weatherlink.com 1.10,2013-08-08 22:46:00,
2013-08-08 16:01:00,79.8,59.0,29.86,ESE,113,0.0,5.0,50,0.00,,,0.00,weatherlink.com 1.10,2013-08-08 23:01:00,
2013-08-08 16:16:00,81.6,60.0,29.86,North,1,1.0,3.0,48,0.00,,,0.00,weatherlink.com 1.10,2013-08-08 23:16:00,
2013-08-08 16:31:00,80.6,59.0,29.86,ESE,108,4.0,7.0,48,0.00,,,0.00,weatherlink.com 1.10,2013-08-08 23:31:00,
2013-08-08 16:46:00,81.8,60.0,29.85,NE,34,0.0,6.0,47,0.00,,,0.00,weatherlink.com 1.10,2013-08-08 23:46:00,
2013-08-08 17:02:00,82.7,60.0,29.85,East,93,1.0,5.0,47,0.00,,,0.00,weatherlink.com 1.10,2013-08-09 00:02:00,
2013-08-08 17:16:00,83.0,60.0,29.84,ENE,74,0.0,3.0,46,0.00,,,0.00,weatherlink.com 1.10,2013-08-09 00:16:00,
2013-08-08 17:31:00,82.7,60.0,29.84,East,90,0.0,5.0,46,0.00,,,0.00,weatherlink.com 1.10,2013-08-09 00:31:00,
2013-08-08 18:01:00,80.5,59.0,29.83,West,281,2.0,8.0,48,0.00,,,0.00,weatherlink.com 1.10,2013-08-09 01:01:00,
2013-08-08 18:16:00,79.7,59.0,29.83,ENE,75,0.0,5.0,49,0.00,,,0.00,weatherlink.com 1.10,2013-08-09 01:16:00,
2013-08-08 18:31:00,80.2,59.0,29.83,North,9,1.0,5.0,49,0.00,,,0.00,weatherlink.com 1.10,2013-08-09 01:31:00,
2013-08-08 18:46:00,78.7,59.0,29.83,NE,56,2.0,3.0,51,0.00,,,0.00,weatherlink.com 1.10,2013-08-09 01:46:00,
2013-08-08 19:16:00,77.7,60.0,29.83,ESE,116,1.0,4.0,54,0.00,,,0.00,weatherlink.com 1.10,2013-08-09 02:16:00,
2013-08-08 19:31:00,77.2,60.0,29.83,East,90,0.0,3.0,55,0.00,,,0.00,weatherlink.com 1.10,2013-08-09 02:31:00,
2013-08-08 19:46:00,76.3,60.0,29.83,East,98,1.0,4.0,57,0.00,,,0.00,weatherlink.com 1.10,2013-08-09 02:46:00,
2013-08-08 20:16:00,74.9,59.0,29.84,SW,236,3.0,4.0,59,0.00,,,0.00,weatherlink.com 1.10,2013-08-09 03:16:00,
2013-08-08 20:31:00,74.3,59.0,29.84,SW,235,0.0,1.0,60,0.00,,,0.00,weatherlink.com 1.10,2013-08-09 03:31:00,
2013-08-08 20:46:00,73.6,59.0,29.84,East,85,0.0,2.0,61,0.00,,,0.00,weatherlink.com 1.10,2013-08-09 03:46:00,
2013-08-08 21:01:00,73.2,59.0,29.84,SE,128,1.0,3.0,62,0.00,,,0.00,weatherlink.com 1.10,2013-08-09 04:01:00,
2013-08-08 21:16:00,72.8,59.0,29.84,SE,125,0.0,1.0,63,0.00,,,0.00,weatherlink.com 1.10,2013-08-09 04:16:00,
2013-08-08 21:31:00,72.1,60.0,29.85,SE,125,0.0,2.0,66,0.00,,,0.00,weatherlink.com 1.10,2013-08-09 04:31:00,
2013-08-08 21:46:00,71.4,60.0,29.85,SE,125,1.0,1.0,67,0.00,,,0.00,weatherlink.com 1.10,2013-08-09 04:46:00,
2013-08-08 22:01:00,71.1,60.0,29.86,NNE,25,0.0,5.0,67,0.00,,,0.00,weatherlink.com 1.10,2013-08-09 05:01:00,
2013-08-08 22:16:00,71.2,60.0,29.86,NNE,19,0.0,3.0,67,0.00,,,0.00,weatherlink.com 1.10,2013-08-09 05:16:00,
2013-08-08 22:31:00,70.8,60.0,29.86,NE,47,0.0,6.0,68,0.00,,,0.00,weatherlink.com 1.10,2013-08-09 05:31:00,
2013-08-08 22:46:00,71.0,59.0,29.86,NNE,22,0.0,4.0,66,0.00,,,0.00,weatherlink.com 1.10,2013-08-09 05:46:00,
2013-08-08 23:01:00,70.6,60.0,29.86,NNE,23,1.0,2.0,68,0.00,,,0.00,weatherlink.com 1.10,2013-08-09 06:01:00,
2013-08-08 23:16:00,70.3,59.0,29.85,NNE,23,0.0,2.0,68,0.00,,,0.00,weatherlink.com 1.10,2013-08-09 06:16:00,
2013-08-08 23:31:00,70.1,59.0,29.86,South,172,0.0,1.0,69,0.00,,,0.00,weatherlink.com 1.10,2013-08-09 06:31:00,
2013-08-08 23:47:00,69.9,59.0,29.87,SE,141,0.0,2.0,68,0.00,,,0.00,weatherlink.com 1.10,2013-08-09 06:47:00,